sensor_id;sensor_type;location;lat;lon;timestamp;temperature;humidity
14097;DHT22;7125;48.106;11.544;2023-04-03T00:02:05;2.30;99.90
14097;DHT22;7125;48.106;11.544;2023-04-03T00:04:32;2.30;99.90
14097;DHT22;7125;48.106;11.544;2023-04-03T00:07:00;2.20;99.90
14097;DHT22;7125;48.106;11.544;2023-04-03T00:09:28;2.20;99.90
14097;DHT22;7125;48.106;11.544;2023-04-03T00:11:55;2.20;99.90
14097;DHT22;7125;48.106;11.544;2023-04-03T00:14:25;2.20;99.90
14097;DHT22;7125;48.106;11.544;2023-04-03T00:16:54;2.20;99.90
14097;DHT22;7125;48.106;11.544;2023-04-03T00:19:24;2.30;99.90
14097;DHT22;7125;48.106;11.544;2023-04-03T00:21:52;2.30;99.90
14097;DHT22;7125;48.106;11.544;2023-04-03T00:24:24;2.30;99.90
14097;DHT22;7125;48.106;11.544;2023-04-03T00:26:51;2.30;99.90
14097;DHT22;7125;48.106;11.544;2023-04-03T00:29:20;2.30;99.90
14097;DHT22;7125;48.106;11.544;2023-04-03T00:31:49;2.30;99.90
14097;DHT22;7125;48.106;11.544;2023-04-03T00:34:16;2.30;99.90
14097;DHT22;7125;48.106;11.544;2023-04-03T00:36:43;2.30;99.90
14097;DHT22;7125;48.106;11.544;2023-04-03T00:39:10;2.30;99.90
14097;DHT22;7125;48.106;11.544;2023-04-03T00:41:38;2.20;99.90
14097;DHT22;7125;48.106;11.544;2023-04-03T00:44:22;2.20;99.90
14097;DHT22;7125;48.106;11.544;2023-04-03T00:46:50;2.20;99.90
14097;DHT22;7125;48.106;11.544;2023-04-03T00:49:17;2.20;99.90
14097;DHT22;7125;48.106;11.544;2023-04-03T00:51:45;2.20;99.90
14097;DHT22;7125;48.106;11.544;2023-04-03T00:54:12;2.20;99.90
14097;DHT22;7125;48.106;11.544;2023-04-03T00:56:41;2.20;99.90
14097;DHT22;7125;48.106;11.544;2023-04-03T00:59:11;2.30;99.90
14097;DHT22;7125;48.106;11.544;2023-04-03T01:01:40;2.30;99.90
14097;DHT22;7125;48.106;11.544;2023-04-03T01:04:28;2.30;99.90
14097;DHT22;7125;48.106;11.544;2023-04-03T01:06:58;2.20;99.90
14097;DHT22;7125;48.106;11.544;2023-04-03T01:09:51;2.20;99.90
14097;DHT22;7125;48.106;11.544;2023-04-03T01:12:23;2.20;99.90
14097;DHT22;7125;48.106;11.544;2023-04-03T01:14:54;2.20;99.90
14097;DHT22;7125;48.106;11.544;2023-04-03T01:17:32;2.20;99.90
14097;DHT22;7125;48.106;11.544;2023-04-03T01:23:25;2.10;99.90
14097;DHT22;7125;48.106;11.544;2023-04-03T01:25:55;2.20;99.90
14097;DHT22;7125;48.106;11.544;2023-04-03T01:28:31;2.20;99.90
14097;DHT22;7125;48.106;11.544;2023-04-03T01:31:13;2.10;99.90
14097;DHT22;7125;48.106;11.544;2023-04-03T01:33:52;2.10;99.90
14097;DHT22;7125;48.106;11.544;2023-04-03T01:36:22;2.10;99.90
14097;DHT22;7125;48.106;11.544;2023-04-03T01:38:54;2.20;99.90
14097;DHT22;7125;48.106;11.544;2023-04-03T01:41:28;2.20;99.90
14097;DHT22;7125;48.106;11.544;2023-04-03T01:44:09;2.20;99.90
14097;DHT22;7125;48.106;11.544;2023-04-03T01:46:53;2.20;99.90
14097;DHT22;7125;48.106;11.544;2023-04-03T01:49:43;2.20;99.90
14097;DHT22;7125;48.106;11.544;2023-04-03T01:52:14;2.30;99.90
14097;DHT22;7125;48.106;11.544;2023-04-03T01:54:55;2.20;99.90
14097;DHT22;7125;48.106;11.544;2023-04-03T01:57:25;2.20;99.90
14097;DHT22;7125;48.106;11.544;2023-04-03T01:59:57;2.30;99.90
14097;DHT22;7125;48.106;11.544;2023-04-03T02:02:43;2.20;99.90
14097;DHT22;7125;48.106;11.544;2023-04-03T02:05:34;2.20;99.90
14097;DHT22;7125;48.106;11.544;2023-04-03T02:08:12;2.20;99.90
14097;DHT22;7125;48.106;11.544;2023-04-03T02:10:41;2.30;99.90
14097;DHT22;7125;48.106;11.544;2023-04-03T02:13:15;2.30;99.90
14097;DHT22;7125;48.106;11.544;2023-04-03T02:18:58;2.30;99.90
14097;DHT22;7125;48.106;11.544;2023-04-03T02:21:35;2.30;99.90
14097;DHT22;7125;48.106;11.544;2023-04-03T02:24:17;2.30;99.90
14097;DHT22;7125;48.106;11.544;2023-04-03T02:27:12;2.30;99.90
14097;DHT22;7125;48.106;11.544;2023-04-03T02:29:57;2.30;99.90
14097;DHT22;7125;48.106;11.544;2023-04-03T02:32:47;2.30;99.90
14097;DHT22;7125;48.106;11.544;2023-04-03T02:35:34;2.30;99.90
14097;DHT22;7125;48.106;11.544;2023-04-03T02:38:20;2.20;99.90
14097;DHT22;7125;48.106;11.544;2023-04-03T02:41:00;2.30;99.90
14097;DHT22;7125;48.106;11.544;2023-04-03T02:43:27;2.20;99.90
14097;DHT22;7125;48.106;11.544;2023-04-03T02:45:55;2.20;99.90
14097;DHT22;7125;48.106;11.544;2023-04-03T02:48:22;2.20;99.90
14097;DHT22;7125;48.106;11.544;2023-04-03T02:50:49;2.20;99.90
14097;DHT22;7125;48.106;11.544;2023-04-03T02:53:18;2.20;99.90
14097;DHT22;7125;48.106;11.544;2023-04-03T02:55:45;2.20;99.90
14097;DHT22;7125;48.106;11.544;2023-04-03T02:58:13;2.20;99.90
14097;DHT22;7125;48.106;11.544;2023-04-03T03:00:42;2.20;99.90
14097;DHT22;7125;48.106;11.544;2023-04-03T03:03:17;2.20;99.90
14097;DHT22;7125;48.106;11.544;2023-04-03T03:05:47;2.20;99.90
14097;DHT22;7125;48.106;11.544;2023-04-03T03:08:21;2.20;99.90
14097;DHT22;7125;48.106;11.544;2023-04-03T03:11:13;2.20;99.90
14097;DHT22;7125;48.106;11.544;2023-04-03T03:13:57;2.20;99.90
14097;DHT22;7125;48.106;11.544;2023-04-03T03:16:33;2.20;99.90
14097;DHT22;7125;48.106;11.544;2023-04-03T03:19:19;2.30;99.90
14097;DHT22;7125;48.106;11.544;2023-04-03T03:21:46;2.20;99.90
14097;DHT22;7125;48.106;11.544;2023-04-03T03:24:14;2.20;99.90
14097;DHT22;7125;48.106;11.544;2023-04-03T03:26:42;2.20;99.90
14097;DHT22;7125;48.106;11.544;2023-04-03T03:29:10;2.30;99.90
14097;DHT22;7125;48.106;11.544;2023-04-03T03:31:38;2.30;99.90
14097;DHT22;7125;48.106;11.544;2023-04-03T03:34:06;2.30;99.90
14097;DHT22;7125;48.106;11.544;2023-04-03T03:36:33;2.30;99.90
14097;DHT22;7125;48.106;11.544;2023-04-03T03:39:02;2.30;99.90
14097;DHT22;7125;48.106;11.544;2023-04-03T03:41:30;2.30;99.90
14097;DHT22;7125;48.106;11.544;2023-04-03T03:43:57;2.30;99.90
14097;DHT22;7125;48.106;11.544;2023-04-03T03:46:27;2.30;99.90
14097;DHT22;7125;48.106;11.544;2023-04-03T03:48:55;2.30;99.90
14097;DHT22;7125;48.106;11.544;2023-04-03T03:51:22;2.30;99.90
14097;DHT22;7125;48.106;11.544;2023-04-03T03:53:49;2.30;99.90
14097;DHT22;7125;48.106;11.544;2023-04-03T03:56:18;2.30;99.90
14097;DHT22;7125;48.106;11.544;2023-04-03T03:58:48;2.30;99.90
14097;DHT22;7125;48.106;11.544;2023-04-03T04:01:15;2.30;99.90
14097;DHT22;7125;48.106;11.544;2023-04-03T04:03:46;2.30;99.90
14097;DHT22;7125;48.106;11.544;2023-04-03T04:06:20;2.30;99.90
14097;DHT22;7125;48.106;11.544;2023-04-03T04:08:48;2.30;99.90
14097;DHT22;7125;48.106;11.544;2023-04-03T04:11:15;2.40;99.90
14097;DHT22;7125;48.106;11.544;2023-04-03T04:13:44;2.40;99.90
14097;DHT22;7125;48.106;11.544;2023-04-03T04:16:15;2.30;99.90
14097;DHT22;7125;48.106;11.544;2023-04-03T04:18:42;2.30;99.90
14097;DHT22;7125;48.106;11.544;2023-04-03T04:21:11;2.30;99.90
14097;DHT22;7125;48.106;11.544;2023-04-03T04:24:08;2.30;99.90
14097;DHT22;7125;48.106;11.544;2023-04-03T04:26:47;2.30;99.90
14097;DHT22;7125;48.106;11.544;2023-04-03T04:29:24;2.40;99.90
14097;DHT22;7125;48.106;11.544;2023-04-03T04:35:31;2.30;99.90
14097;DHT22;7125;48.106;11.544;2023-04-03T04:38:03;2.30;99.90
14097;DHT22;7125;48.106;11.544;2023-04-03T04:40:37;2.30;99.90
14097;DHT22;7125;48.106;11.544;2023-04-03T04:43:28;2.30;99.90
14097;DHT22;7125;48.106;11.544;2023-04-03T04:46:11;2.30;99.90
14097;DHT22;7125;48.106;11.544;2023-04-03T04:48:45;2.30;99.90
14097;DHT22;7125;48.106;11.544;2023-04-03T04:51:17;2.30;99.90
14097;DHT22;7125;48.106;11.544;2023-04-03T04:53:47;2.30;99.90
14097;DHT22;7125;48.106;11.544;2023-04-03T04:56:44;2.30;99.90
14097;DHT22;7125;48.106;11.544;2023-04-03T05:03:20;2.30;99.90
14097;DHT22;7125;48.106;11.544;2023-04-03T05:05:48;2.40;99.90
14097;DHT22;7125;48.106;11.544;2023-04-03T05:08:16;2.40;99.90
14097;DHT22;7125;48.106;11.544;2023-04-03T05:10:45;2.40;99.90
14097;DHT22;7125;48.106;11.544;2023-04-03T05:13:14;2.40;99.90
14097;DHT22;7125;48.106;11.544;2023-04-03T05:15:41;2.40;99.90
14097;DHT22;7125;48.106;11.544;2023-04-03T05:18:08;2.40;99.90
14097;DHT22;7125;48.106;11.544;2023-04-03T05:20:36;2.40;99.90
14097;DHT22;7125;48.106;11.544;2023-04-03T05:23:06;2.40;99.90
14097;DHT22;7125;48.106;11.544;2023-04-03T05:25:51;2.50;99.90
14097;DHT22;7125;48.106;11.544;2023-04-03T05:28:35;2.50;99.90
14097;DHT22;7125;48.106;11.544;2023-04-03T05:31:18;2.50;99.90
14097;DHT22;7125;48.106;11.544;2023-04-03T05:33:53;2.50;99.90
14097;DHT22;7125;48.106;11.544;2023-04-03T05:36:31;2.50;99.90
14097;DHT22;7125;48.106;11.544;2023-04-03T05:39:22;2.50;99.90
14097;DHT22;7125;48.106;11.544;2023-04-03T05:41:54;2.60;99.90
14097;DHT22;7125;48.106;11.544;2023-04-03T05:44:50;2.60;99.90
14097;DHT22;7125;48.106;11.544;2023-04-03T05:50:34;2.60;99.90
14097;DHT22;7125;48.106;11.544;2023-04-03T05:53:21;2.70;99.90
14097;DHT22;7125;48.106;11.544;2023-04-03T05:56:07;2.70;99.90
14097;DHT22;7125;48.106;11.544;2023-04-03T06:01:59;2.70;99.90
14097;DHT22;7125;48.106;11.544;2023-04-03T06:04:45;2.60;99.90
14097;DHT22;7125;48.106;11.544;2023-04-03T06:07:24;2.70;99.90
14097;DHT22;7125;48.106;11.544;2023-04-03T06:09:58;2.70;99.90
14097;DHT22;7125;48.106;11.544;2023-04-03T06:12:27;2.80;99.90
14097;DHT22;7125;48.106;11.544;2023-04-03T06:14:57;2.80;99.90
14097;DHT22;7125;48.106;11.544;2023-04-03T06:17:24;2.90;99.90
14097;DHT22;7125;48.106;11.544;2023-04-03T06:19:53;2.90;99.90
14097;DHT22;7125;48.106;11.544;2023-04-03T06:22:20;3.00;99.90
14097;DHT22;7125;48.106;11.544;2023-04-03T06:24:47;3.00;99.90
14097;DHT22;7125;48.106;11.544;2023-04-03T06:27:14;3.10;99.90
14097;DHT22;7125;48.106;11.544;2023-04-03T06:29:41;3.10;99.90
14097;DHT22;7125;48.106;11.544;2023-04-03T06:32:11;3.20;99.90
14097;DHT22;7125;48.106;11.544;2023-04-03T06:34:38;3.20;99.90
14097;DHT22;7125;48.106;11.544;2023-04-03T06:37:05;3.30;99.90
14097;DHT22;7125;48.106;11.544;2023-04-03T06:39:33;3.30;99.90
14097;DHT22;7125;48.106;11.544;2023-04-03T06:42:00;3.40;99.90
14097;DHT22;7125;48.106;11.544;2023-04-03T06:44:35;3.40;99.90
14097;DHT22;7125;48.106;11.544;2023-04-03T06:47:02;3.40;99.90
14097;DHT22;7125;48.106;11.544;2023-04-03T06:49:31;3.50;99.90
14097;DHT22;7125;48.106;11.544;2023-04-03T06:51:59;3.50;99.90
14097;DHT22;7125;48.106;11.544;2023-04-03T06:54:26;3.60;99.90
14097;DHT22;7125;48.106;11.544;2023-04-03T06:56:52;3.60;99.90
14097;DHT22;7125;48.106;11.544;2023-04-03T06:59:19;3.60;99.90
14097;DHT22;7125;48.106;11.544;2023-04-03T07:01:46;3.70;99.90
14097;DHT22;7125;48.106;11.544;2023-04-03T07:04:14;3.70;99.90
14097;DHT22;7125;48.106;11.544;2023-04-03T07:06:43;3.80;99.90
14097;DHT22;7125;48.106;11.544;2023-04-03T07:09:10;3.80;99.90
14097;DHT22;7125;48.106;11.544;2023-04-03T07:11:37;3.90;99.90
14097;DHT22;7125;48.106;11.544;2023-04-03T07:14:04;3.90;99.90
14097;DHT22;7125;48.106;11.544;2023-04-03T07:16:32;4.00;99.90
14097;DHT22;7125;48.106;11.544;2023-04-03T07:18:59;4.10;99.90
14097;DHT22;7125;48.106;11.544;2023-04-03T07:21:27;4.10;99.90
14097;DHT22;7125;48.106;11.544;2023-04-03T07:23:56;4.10;99.90
14097;DHT22;7125;48.106;11.544;2023-04-03T07:26:23;4.10;99.90
14097;DHT22;7125;48.106;11.544;2023-04-03T07:28:51;4.20;99.90
14097;DHT22;7125;48.106;11.544;2023-04-03T07:31:18;4.20;99.90
14097;DHT22;7125;48.106;11.544;2023-04-03T07:33:46;4.30;99.90
14097;DHT22;7125;48.106;11.544;2023-04-03T07:36:16;4.30;99.90
14097;DHT22;7125;48.106;11.544;2023-04-03T07:38:43;4.40;99.90
14097;DHT22;7125;48.106;11.544;2023-04-03T07:41:14;4.40;99.90
14097;DHT22;7125;48.106;11.544;2023-04-03T07:43:43;4.40;99.90
14097;DHT22;7125;48.106;11.544;2023-04-03T07:46:10;4.40;99.90
14097;DHT22;7125;48.106;11.544;2023-04-03T07:48:37;4.40;99.90
14097;DHT22;7125;48.106;11.544;2023-04-03T07:51:05;4.50;99.90
14097;DHT22;7125;48.106;11.544;2023-04-03T07:53:33;4.60;99.90
14097;DHT22;7125;48.106;11.544;2023-04-03T07:56:00;4.50;99.90
14097;DHT22;7125;48.106;11.544;2023-04-03T07:58:30;4.50;99.90
14097;DHT22;7125;48.106;11.544;2023-04-03T08:00:57;4.50;99.90
14097;DHT22;7125;48.106;11.544;2023-04-03T08:03:24;4.40;99.90
14097;DHT22;7125;48.106;11.544;2023-04-03T08:05:51;4.40;99.90
14097;DHT22;7125;48.106;11.544;2023-04-03T08:08:20;4.30;99.90
14097;DHT22;7125;48.106;11.544;2023-04-03T08:10:49;4.30;99.90
14097;DHT22;7125;48.106;11.544;2023-04-03T08:13:17;4.30;99.90
14097;DHT22;7125;48.106;11.544;2023-04-03T08:15:46;4.30;99.90
14097;DHT22;7125;48.106;11.544;2023-04-03T08:18:15;4.30;99.90
14097;DHT22;7125;48.106;11.544;2023-04-03T08:20:44;4.30;99.90
14097;DHT22;7125;48.106;11.544;2023-04-03T08:23:11;4.30;99.90
14097;DHT22;7125;48.106;11.544;2023-04-03T08:25:38;4.30;99.90
14097;DHT22;7125;48.106;11.544;2023-04-03T08:28:05;4.30;99.90
14097;DHT22;7125;48.106;11.544;2023-04-03T08:30:33;4.30;99.90
14097;DHT22;7125;48.106;11.544;2023-04-03T08:33:04;4.30;99.90
14097;DHT22;7125;48.106;11.544;2023-04-03T08:35:31;4.50;99.90
14097;DHT22;7125;48.106;11.544;2023-04-03T08:37:58;4.60;99.90
14097;DHT22;7125;48.106;11.544;2023-04-03T08:40:26;4.70;99.90
14097;DHT22;7125;48.106;11.544;2023-04-03T08:43:01;4.80;99.90
14097;DHT22;7125;48.106;11.544;2023-04-03T08:45:41;4.90;99.90
14097;DHT22;7125;48.106;11.544;2023-04-03T08:48:15;5.10;99.90
14097;DHT22;7125;48.106;11.544;2023-04-03T08:50:44;5.20;99.90
14097;DHT22;7125;48.106;11.544;2023-04-03T08:53:16;5.30;99.90
14097;DHT22;7125;48.106;11.544;2023-04-03T08:55:46;5.30;99.90
14097;DHT22;7125;48.106;11.544;2023-04-03T08:58:16;5.30;99.90
14097;DHT22;7125;48.106;11.544;2023-04-03T09:00:47;5.40;99.90
14097;DHT22;7125;48.106;11.544;2023-04-03T09:03:18;5.30;99.90
14097;DHT22;7125;48.106;11.544;2023-04-03T09:05:48;5.40;99.90
14097;DHT22;7125;48.106;11.544;2023-04-03T09:08:23;5.40;99.90
14097;DHT22;7125;48.106;11.544;2023-04-03T09:10:59;5.40;99.90
14097;DHT22;7125;48.106;11.544;2023-04-03T09:13:30;5.40;99.90
14097;DHT22;7125;48.106;11.544;2023-04-03T09:15:58;5.40;99.90
14097;DHT22;7125;48.106;11.544;2023-04-03T09:18:30;5.40;99.90
14097;DHT22;7125;48.106;11.544;2023-04-03T09:21:03;5.50;99.90
14097;DHT22;7125;48.106;11.544;2023-04-03T09:23:38;5.60;99.90
14097;DHT22;7125;48.106;11.544;2023-04-03T09:26:14;5.80;99.90
14097;DHT22;7125;48.106;11.544;2023-04-03T09:28:43;5.80;99.90
14097;DHT22;7125;48.106;11.544;2023-04-03T09:31:19;5.90;99.90
14097;DHT22;7125;48.106;11.544;2023-04-03T09:33:49;5.90;99.90
14097;DHT22;7125;48.106;11.544;2023-04-03T09:36:39;6.10;99.90
14097;DHT22;7125;48.106;11.544;2023-04-03T09:39:11;6.20;99.90
14097;DHT22;7125;48.106;11.544;2023-04-03T09:41:38;6.30;99.90
14097;DHT22;7125;48.106;11.544;2023-04-03T09:44:21;6.30;99.90
14097;DHT22;7125;48.106;11.544;2023-04-03T09:46:49;6.30;99.90
14097;DHT22;7125;48.106;11.544;2023-04-03T09:49:18;6.30;99.90
14097;DHT22;7125;48.106;11.544;2023-04-03T09:51:45;6.30;99.90
14097;DHT22;7125;48.106;11.544;2023-04-03T09:54:34;6.20;99.90
14097;DHT22;7125;48.106;11.544;2023-04-03T09:57:08;6.10;99.90
14097;DHT22;7125;48.106;11.544;2023-04-03T09:59:37;6.10;99.90
14097;DHT22;7125;48.106;11.544;2023-04-03T10:02:22;5.90;99.90
14097;DHT22;7125;48.106;11.544;2023-04-03T10:04:51;5.80;99.90
14097;DHT22;7125;48.106;11.544;2023-04-03T10:07:31;5.60;99.90
14097;DHT22;7125;48.106;11.544;2023-04-03T10:10:00;5.60;99.90
14097;DHT22;7125;48.106;11.544;2023-04-03T10:12:29;5.70;99.90
14097;DHT22;7125;48.106;11.544;2023-04-03T10:14:58;5.80;99.90
14097;DHT22;7125;48.106;11.544;2023-04-03T10:17:34;5.80;99.90
14097;DHT22;7125;48.106;11.544;2023-04-03T10:20:09;5.80;99.90
14097;DHT22;7125;48.106;11.544;2023-04-03T10:22:59;5.80;99.90
14097;DHT22;7125;48.106;11.544;2023-04-03T10:25:32;5.90;99.90
14097;DHT22;7125;48.106;11.544;2023-04-03T10:28:07;5.90;99.90
14097;DHT22;7125;48.106;11.544;2023-04-03T10:30:42;5.80;99.90
14097;DHT22;7125;48.106;11.544;2023-04-03T10:33:23;5.60;99.90
14097;DHT22;7125;48.106;11.544;2023-04-03T10:36:02;5.40;99.90
14097;DHT22;7125;48.106;11.544;2023-04-03T10:38:43;5.30;99.90
14097;DHT22;7125;48.106;11.544;2023-04-03T10:41:16;5.30;99.90
14097;DHT22;7125;48.106;11.544;2023-04-03T10:43:50;5.20;99.90
14097;DHT22;7125;48.106;11.544;2023-04-03T10:46:23;5.20;99.90
14097;DHT22;7125;48.106;11.544;2023-04-03T10:49:05;5.10;99.90
14097;DHT22;7125;48.106;11.544;2023-04-03T10:51:41;5.00;99.90
14097;DHT22;7125;48.106;11.544;2023-04-03T10:54:12;4.90;99.90
14097;DHT22;7125;48.106;11.544;2023-04-03T10:56:42;4.90;99.90
14097;DHT22;7125;48.106;11.544;2023-04-03T10:59:19;4.80;99.90
14097;DHT22;7125;48.106;11.544;2023-04-03T11:01:52;4.60;99.90
14097;DHT22;7125;48.106;11.544;2023-04-03T11:04:21;4.50;99.90
14097;DHT22;7125;48.106;11.544;2023-04-03T11:06:57;4.30;99.90
14097;DHT22;7125;48.106;11.544;2023-04-03T11:09:29;4.20;99.90
14097;DHT22;7125;48.106;11.544;2023-04-03T11:12:04;4.20;99.90
14097;DHT22;7125;48.106;11.544;2023-04-03T11:14:34;4.00;99.90
14097;DHT22;7125;48.106;11.544;2023-04-03T11:17:12;4.00;99.90
14097;DHT22;7125;48.106;11.544;2023-04-03T11:19:57;4.10;99.90
14097;DHT22;7125;48.106;11.544;2023-04-03T11:22:37;4.10;99.90
14097;DHT22;7125;48.106;11.544;2023-04-03T11:25:19;4.10;99.90
14097;DHT22;7125;48.106;11.544;2023-04-03T11:27:54;4.20;99.90
14097;DHT22;7125;48.106;11.544;2023-04-03T11:30:47;4.30;99.90
14097;DHT22;7125;48.106;11.544;2023-04-03T11:33:37;4.50;99.90
14097;DHT22;7125;48.106;11.544;2023-04-03T11:36:12;4.80;99.90
14097;DHT22;7125;48.106;11.544;2023-04-03T11:38:44;5.00;99.90
14097;DHT22;7125;48.106;11.544;2023-04-03T11:41:14;5.20;99.90
14097;DHT22;7125;48.106;11.544;2023-04-03T11:43:43;5.40;99.90
14097;DHT22;7125;48.106;11.544;2023-04-03T11:46:22;5.50;99.90
14097;DHT22;7125;48.106;11.544;2023-04-03T11:48:52;5.50;99.90
14097;DHT22;7125;48.106;11.544;2023-04-03T11:51:40;5.60;99.90
14097;DHT22;7125;48.106;11.544;2023-04-03T11:54:47;5.70;99.90
14097;DHT22;7125;48.106;11.544;2023-04-03T11:58:01;5.70;99.90
14097;DHT22;7125;48.106;11.544;2023-04-03T12:00:58;5.80;99.90
14097;DHT22;7125;48.106;11.544;2023-04-03T12:03:31;5.80;99.90
14097;DHT22;7125;48.106;11.544;2023-04-03T12:09:23;6.10;99.90
14097;DHT22;7125;48.106;11.544;2023-04-03T12:11:52;6.30;99.90
14097;DHT22;7125;48.106;11.544;2023-04-03T12:14:22;6.30;99.90
14097;DHT22;7125;48.106;11.544;2023-04-03T12:16:52;6.30;99.90
14097;DHT22;7125;48.106;11.544;2023-04-03T12:19:40;6.20;99.90
14097;DHT22;7125;48.106;11.544;2023-04-03T12:22:13;6.20;99.90
14097;DHT22;7125;48.106;11.544;2023-04-03T12:24:41;6.20;99.90
14097;DHT22;7125;48.106;11.544;2023-04-03T12:27:26;6.20;99.90
14097;DHT22;7125;48.106;11.544;2023-04-03T12:29:58;6.40;99.90
14097;DHT22;7125;48.106;11.544;2023-04-03T12:32:37;6.40;99.90
14097;DHT22;7125;48.106;11.544;2023-04-03T12:35:27;6.50;99.30
14097;DHT22;7125;48.106;11.544;2023-04-03T12:38:26;6.50;98.90
14097;DHT22;7125;48.106;11.544;2023-04-03T12:41:10;6.50;99.70
14097;DHT22;7125;48.106;11.544;2023-04-03T12:43:53;6.40;99.50
14097;DHT22;7125;48.106;11.544;2023-04-03T12:46:24;6.40;99.00
14097;DHT22;7125;48.106;11.544;2023-04-03T12:48:55;6.40;99.30
14097;DHT22;7125;48.106;11.544;2023-04-03T12:51:28;6.50;99.10
14097;DHT22;7125;48.106;11.544;2023-04-03T12:54:01;6.60;97.80
14097;DHT22;7125;48.106;11.544;2023-04-03T12:56:30;6.80;97.80
14097;DHT22;7125;48.106;11.544;2023-04-03T12:59:15;7.00;97.90
14097;DHT22;7125;48.106;11.544;2023-04-03T13:01:53;7.20;95.90
14097;DHT22;7125;48.106;11.544;2023-04-03T13:04:21;7.40;95.80
14097;DHT22;7125;48.106;11.544;2023-04-03T13:06:48;7.40;95.80
14097;DHT22;7125;48.106;11.544;2023-04-03T13:09:20;7.40;94.40
14097;DHT22;7125;48.106;11.544;2023-04-03T13:11:50;7.40;95.00
14097;DHT22;7125;48.106;11.544;2023-04-03T13:14:21;7.50;94.80
14097;DHT22;7125;48.106;11.544;2023-04-03T13:16:57;7.50;94.80
14097;DHT22;7125;48.106;11.544;2023-04-03T13:19:27;7.40;95.20
14097;DHT22;7125;48.106;11.544;2023-04-03T13:21:59;7.40;93.70
14097;DHT22;7125;48.106;11.544;2023-04-03T13:24:28;7.40;93.90
14097;DHT22;7125;48.106;11.544;2023-04-03T13:26:56;7.30;93.50
14097;DHT22;7125;48.106;11.544;2023-04-03T13:29:26;7.20;93.90
14097;DHT22;7125;48.106;11.544;2023-04-03T13:31:55;7.30;93.80
14097;DHT22;7125;48.106;11.544;2023-04-03T13:34:23;7.50;94.70
14097;DHT22;7125;48.106;11.544;2023-04-03T13:36:56;7.60;91.80
14097;DHT22;7125;48.106;11.544;2023-04-03T13:39:25;7.60;91.60
14097;DHT22;7125;48.106;11.544;2023-04-03T13:41:55;7.50;92.10
14097;DHT22;7125;48.106;11.544;2023-04-03T13:44:33;7.50;91.80
14097;DHT22;7125;48.106;11.544;2023-04-03T13:47:14;7.70;92.30
14097;DHT22;7125;48.106;11.544;2023-04-03T13:49:43;8.00;91.60
14097;DHT22;7125;48.106;11.544;2023-04-03T13:52:26;7.90;90.80
14097;DHT22;7125;48.106;11.544;2023-04-03T13:55:16;7.50;90.30
14097;DHT22;7125;48.106;11.544;2023-04-03T13:57:52;7.10;91.00
14097;DHT22;7125;48.106;11.544;2023-04-03T14:00:38;6.80;91.60
14097;DHT22;7125;48.106;11.544;2023-04-03T14:03:20;6.50;91.60
14097;DHT22;7125;48.106;11.544;2023-04-03T14:05:51;6.30;92.60
14097;DHT22;7125;48.106;11.544;2023-04-03T14:08:21;6.20;92.40
14097;DHT22;7125;48.106;11.544;2023-04-03T14:10:49;6.20;92.90
14097;DHT22;7125;48.106;11.544;2023-04-03T14:13:19;6.20;92.30
14097;DHT22;7125;48.106;11.544;2023-04-03T14:15:48;6.20;92.20
14097;DHT22;7125;48.106;11.544;2023-04-03T14:18:18;6.20;92.60
14097;DHT22;7125;48.106;11.544;2023-04-03T14:20:50;6.30;92.90
14097;DHT22;7125;48.106;11.544;2023-04-03T14:23:17;6.30;92.00
14097;DHT22;7125;48.106;11.544;2023-04-03T14:25:46;6.30;91.90
14097;DHT22;7125;48.106;11.544;2023-04-03T14:28:16;6.50;92.10
14097;DHT22;7125;48.106;11.544;2023-04-03T14:30:46;6.50;91.80
14097;DHT22;7125;48.106;11.544;2023-04-03T14:33:17;6.60;91.40
14097;DHT22;7125;48.106;11.544;2023-04-03T14:35:46;6.60;90.70
14097;DHT22;7125;48.106;11.544;2023-04-03T14:38:24;6.60;90.30
14097;DHT22;7125;48.106;11.544;2023-04-03T14:40:52;6.60;90.60
14097;DHT22;7125;48.106;11.544;2023-04-03T14:43:20;6.70;91.00
14097;DHT22;7125;48.106;11.544;2023-04-03T14:45:51;6.90;91.20
14097;DHT22;7125;48.106;11.544;2023-04-03T14:48:30;7.10;90.30
14097;DHT22;7125;48.106;11.544;2023-04-03T14:50:58;7.40;89.50
14097;DHT22;7125;48.106;11.544;2023-04-03T14:53:25;7.50;89.20
14097;DHT22;7125;48.106;11.544;2023-04-03T14:55:55;7.50;88.60
14097;DHT22;7125;48.106;11.544;2023-04-03T14:58:24;7.60;86.70
14097;DHT22;7125;48.106;11.544;2023-04-03T15:00:53;7.60;86.10
14097;DHT22;7125;48.106;11.544;2023-04-03T15:03:22;7.50;86.00
14097;DHT22;7125;48.106;11.544;2023-04-03T15:05:50;7.40;84.10
14097;DHT22;7125;48.106;11.544;2023-04-03T15:08:19;7.20;83.90
14097;DHT22;7125;48.106;11.544;2023-04-03T15:10:48;7.10;84.80
14097;DHT22;7125;48.106;11.544;2023-04-03T15:13:15;7.00;86.10
14097;DHT22;7125;48.106;11.544;2023-04-03T15:15:43;6.80;86.60
14097;DHT22;7125;48.106;11.544;2023-04-03T15:18:15;6.70;86.90
14097;DHT22;7125;48.106;11.544;2023-04-03T15:20:44;6.70;86.80
14097;DHT22;7125;48.106;11.544;2023-04-03T15:23:13;6.70;87.00
14097;DHT22;7125;48.106;11.544;2023-04-03T15:25:42;6.50;86.00
14097;DHT22;7125;48.106;11.544;2023-04-03T15:28:15;6.40;83.30
14097;DHT22;7125;48.106;11.544;2023-04-03T15:30:44;6.30;82.80
14097;DHT22;7125;48.106;11.544;2023-04-03T15:33:11;6.20;82.20
14097;DHT22;7125;48.106;11.544;2023-04-03T15:35:38;6.10;83.30
14097;DHT22;7125;48.106;11.544;2023-04-03T15:38:07;6.10;82.60
14097;DHT22;7125;48.106;11.544;2023-04-03T15:40:38;6.00;82.80
14097;DHT22;7125;48.106;11.544;2023-04-03T15:43:05;6.00;82.40
14097;DHT22;7125;48.106;11.544;2023-04-03T15:45:34;6.00;81.60
14097;DHT22;7125;48.106;11.544;2023-04-03T15:48:05;6.00;83.10
14097;DHT22;7125;48.106;11.544;2023-04-03T15:50:34;6.00;84.00
14097;DHT22;7125;48.106;11.544;2023-04-03T15:53:02;6.00;83.30
14097;DHT22;7125;48.106;11.544;2023-04-03T15:55:34;6.00;82.00
14097;DHT22;7125;48.106;11.544;2023-04-03T15:58:03;6.00;82.20
14097;DHT22;7125;48.106;11.544;2023-04-03T16:00:33;6.00;80.00
14097;DHT22;7125;48.106;11.544;2023-04-03T16:03:05;6.00;81.10
14097;DHT22;7125;48.106;11.544;2023-04-03T16:05:35;5.90;79.80
14097;DHT22;7125;48.106;11.544;2023-04-03T16:08:03;5.90;79.70
14097;DHT22;7125;48.106;11.544;2023-04-03T16:10:35;5.80;77.60
14097;DHT22;7125;48.106;11.544;2023-04-03T16:13:06;5.70;78.20
14097;DHT22;7125;48.106;11.544;2023-04-03T16:15:34;5.60;77.30
14097;DHT22;7125;48.106;11.544;2023-04-03T16:18:02;5.60;78.20
14097;DHT22;7125;48.106;11.544;2023-04-03T16:20:29;5.50;78.30
14097;DHT22;7125;48.106;11.544;2023-04-03T16:22:59;5.50;77.70
14097;DHT22;7125;48.106;11.544;2023-04-03T16:25:27;5.40;80.20
14097;DHT22;7125;48.106;11.544;2023-04-03T16:27:58;5.30;81.60
14097;DHT22;7125;48.106;11.544;2023-04-03T16:30:26;5.30;81.50
14097;DHT22;7125;48.106;11.544;2023-04-03T16:32:53;5.20;82.40
14097;DHT22;7125;48.106;11.544;2023-04-03T16:35:21;5.20;83.30
14097;DHT22;7125;48.106;11.544;2023-04-03T16:37:48;5.10;83.10
14097;DHT22;7125;48.106;11.544;2023-04-03T16:40:15;5.10;82.00
14097;DHT22;7125;48.106;11.544;2023-04-03T16:42:42;5.00;81.20
14097;DHT22;7125;48.106;11.544;2023-04-03T16:45:11;5.00;81.40